AirNav   Air Wisconsin Up To $57,000 Bonus
 
 1318 users online  

T57 Garland/DFW Heloplex
Garland, Texas, USA

GOING TO GARLAND?


FAA INFORMATION EFFECTIVE 19 MAY 2022

Location

FAA Identifier: T57
Lat/Long: 32-53-12.9000N 096-41-06.0600W
32-53.215000N 096-41.101000W
32.8869167,-96.6850167
(estimated)
Elevation: 601 ft. / 183 m (estimated)
Variation: 07E (1985)
From city: 2 miles SW of GARLAND, TX
Time zone: UTC -5 (UTC -6 during Standard Time)
Zip code: 75041

Heliport Operations

Heliport use: Open to the public
Activation date: 03/1991
Control tower: no
ARTCC: FORT WORTH CENTER
FSS: FORT WORTH FLIGHT SERVICE STATION
NOTAMs facility: FTW (NOTAM-D service available)
Attendance: MON-SAT 0800-1800, ALL SUN 0900-1700
Wind indicator: lighted
Segmented circle: no
Lights: PERI LTS LOW INTST SS-SR, TO INCR INTST - CTAF.
Beacon: white-green-yellow (heliport)
Operates sunset to sunrise.

Heliport Communications

CTAF/UNICOM: 123.05
WX ASOS at DAL (9 nm W): PHONE 214-353-1551
WX AWOS-3PT at ADS (9 nm NW): PHONE 972-386-4855
WX AWOS-3 at 49T (9 nm SW): 135.425 (214-670-1243)
WX AWOS-3 at HQZ (11 nm SE): 118.175 (972-222-7631)
WX AWOS-3PT at F46 (13 nm E): 121.25 (972-772-6699)
WX ASOS at RBD (15 nm SW): PHONE 214-330-5317
WX ASOS at DFW (18 nm W): PHONE 972-615-2608
WX ASOS at TKI (18 nm N): PHONE 972-548-8525
WX AWOS-3PT at LNC (19 nm S): 118.975 (972-227-0471)

Nearby radio navigation aids

VOR radial/distance  VOR name  Freq  Var
CVEr085/11.0COWBOY VOR/DME116.2006E
TTTr081/17.9MAVERICK VOR/DME113.1006E
FUZr084/24.9RANGER VORTAC115.7006E

 
NDB name  Hdg/Dist  Freq  Var  ID
MESQUITE298/9.124803EPQF .--. --.- ..-.

Heliport Services

Fuel available: 100LL JET-A
Parking: hangars and tiedowns
Airframe service: MAJOR
Powerplant service: MAJOR

Runway Information

Helipad H1

Dimensions: 105 x 105 ft. / 32 x 32 m
Surface: concrete, in good condition
Runway edge lights: PERI
Operational restrictions: EGRESS/INGRESS N & S.
Latitude: 32-53.215000N
Longitude: 096-41.101000W
Elevation: 601.0 ft.
Traffic pattern: leftleft
Markings: basic, in good condition
Approach lights: RLLS
FROM WEST.

Helipad H2

Dimensions: 54 x 54 ft. / 16 x 16 m
Surface: concrete, in good condition
Operational restrictions: EGRESS/INGRESS N.
Latitude: 32-53.184000N
Longitude: 096-41.131333W
Elevation: 601.0 ft.
Traffic pattern: leftleft
Markings: basic

Heliport Ownership and Management from official FAA records

Ownership: Publicly-owned
Owner: CITY OF GARLAND
205 N. 5TH
GARLAND, TX 75040
Phone 972-205-2432
TRANSPORT@GARLANDTX.COM
Manager: CONNIE PYATT
2559 S. JUPITER RD.
GARLAND, TX 75041
Phone 214-349-7000
CONNIE@SKYHELICOPTERS.COM

Heliport Operational Statistics

Aircraft based on the field: 9
Helicopters: 9
    
Aircraft operations: avg 100/day *
96% local general aviation
4% transient general aviation
<1% air taxi
* for 12-month period ending 31 December 2019

Additional Remarks

A57-H1 PREVAILING WINDS FROM S. OBSTN CLNC FROM S 13:1, FROM NW 12:1
FOR CD CTC REGIONAL APCH AT 972-615-2799.
A52-H1 648 FT TWR 1 MI N; 34 FT BLDG 170 FT NORTH; 48 FT ANT 352 FT EAST; 30 FT BLDG 442 FT SOUTH; 35 FT BLDG 379 FT WEST.

Instrument Procedures

There are no published instrument procedures at T57.

Some nearby airports with instrument procedures:

KDAL - Dallas Love Field Airport (9 nm W)
KADS - Addison Airport (9 nm NW)
KHQZ - Mesquite Metro Airport (11 nm SE)
F46 - Ralph M Hall/Rockwall Municipal Airport (13 nm E)
KRBD - Dallas Executive Airport (15 nm SW)
KDFW - Dallas-Fort Worth International Airport (18 nm W)
KTKI - McKinney National Airport (18 nm N)
KLNC - Lancaster Regional Airport (19 nm S)
 
Loc | Ops | Rwys | IFR | FBO | Links
Com | Nav | Svcs | Stats | Notes

City of Fort Worth
 
Area around T57 (Garland/DFW Heloplex)
 
Road maps at: MapQuest Bing Google
 
Aerial photo
WARNING: Photo may not be current or correct
Aerial photo of T57 (Garland/DFW Heloplex)
Do you have a better or more recent aerial photo of Garland/DFW Heloplex that you would like to share? If so, please send us your photo.

 
Sectional chart

 
Airport distance calculator
Flying to Garland/DFW Heloplex? Find the distance to fly.

From to T57

Sunrise and sunset
Times for 27-May-2022
 Local
(UTC-5)
 Zulu
(UTC)
Morning civil twilight05:5410:54
Sunrise06:2211:22
Sunset20:2601:26
Evening civil twilight20:5401:54

Current date and time
Zulu (UTC)  27-May-2022 17:12:35
Local (UTC-5)  27-May-2022 12:12:35
 
METAR
KADS 
8nm NW 
271647Z 33003KT 10SM SKC 28/07 A3006
KDAL 
9nm W 
271653Z 00000KT 10SM CLR 29/09 A3005 RMK AO2 SLP169 T02890089
KHQZ 
11nm SE 
271650Z 00000KT 10SM CLR 27/05 A3007
KF46 
13nm E 
271655Z AUTO 00000KT 10SM CLR 27/10 A3007 RMK AO2 T02670100
KRBD 
15nm SW 
271653Z 36003KT 10SM CLR 29/08 A3005 RMK AO2 SLP169 T02890078
KDFW 
17nm W 
271653Z 06004KT 10SM CLR 29/06 A3004 RMK AO2 SLP165 T02890061
KTKI 
19nm N 
271653Z 03005KT 10SM CLR 27/10 A3006 RMK AO2 SLP176 T02720100
KLNC 
19nm S 
271655Z AUTO 00000KT 10SM CLR 29/11 A3007 RMK AO2 T02850106
TAF
KDAL 
9nm W 
271500Z 2715/2812 11005KT P6SM SKC
KDFW 
17nm W 
271500Z 2715/2818 12005KT P6SM SKC
NOTAMs
Click for the latest NOTAMs
NOTAMs are issued by the DoD/FAA and will open in a separate window not controlled by AirNav.

 

 
 

FBO, Fuel Providers, and Aircraft Ground Support

  
 Business Name 
 
 Contact 
 
 Services / Description 
 
Fuel Prices
 
Comments
  
Sky Helicopters 214-349-7000
no information available

If you are affiliated with Sky Helicopters and would like to show here your services, contact info, web link, logo, and more, click here
100LL Jet A
FS $6.29 $5.99 
 Updated 20-May-2022
 
   write
FS=Full service
Update Fuel Prices
 

Would you like to see your business listed on this page?

 If your business provides an interesting product or service to pilots, flight crews, aircraft, or users of the Garland/DFW Heloplex, you should consider listing it here.  To start the listing process, click on the button below
 
Add a business
 

Other Pages about Garland/DFW Heloplex

www.skyhelicopters.com/...
 
Update a link
 
Copyright © AirNav, LLC. All rights reserved. Privacy Policy  Contact